createdAt,value
2018-12-09T00:01:55.004Z,6.13
2018-12-09T00:04:23.458Z,6.03
2018-12-09T00:06:52.005Z,5.57
2018-12-09T00:09:20.584Z,5.20
2018-12-09T00:11:49.668Z,6.13
2018-12-09T00:14:18.104Z,5.23
2018-12-09T00:16:47.897Z,4.10
2018-12-09T00:19:16.417Z,4.90
2018-12-09T00:21:44.848Z,4.40
2018-12-09T00:24:13.380Z,4.93
2018-12-09T00:26:41.881Z,4.43
2018-12-09T00:29:10.300Z,5.93
2018-12-09T00:31:39.033Z,5.47
2018-12-09T00:34:07.518Z,4.37
2018-12-09T00:36:36.277Z,5.87
2018-12-09T00:39:06.076Z,4.37
2018-12-09T00:41:34.466Z,4.53
2018-12-09T00:44:03.044Z,7.00
2018-12-09T00:46:31.637Z,4.37
2018-12-09T00:49:00.216Z,4.13
2018-12-09T00:51:28.949Z,3.73
2018-12-09T00:53:57.531Z,4.77
2018-12-09T00:56:25.950Z,6.27
2018-12-09T00:58:54.509Z,4.47
2018-12-09T01:01:23.021Z,6.43
2018-12-09T01:03:51.860Z,7.57
2018-12-09T01:06:20.373Z,5.17
2018-12-09T01:08:49.086Z,5.10
2018-12-09T01:11:18.114Z,6.77
2018-12-09T01:13:46.660Z,6.17
2018-12-09T01:16:15.423Z,6.50
2018-12-09T01:18:43.941Z,5.60
2018-12-09T01:21:12.524Z,5.97
2018-12-09T01:23:41.186Z,5.03
2018-12-09T01:26:09.800Z,6.60
2018-12-09T01:28:38.340Z,5.60
2018-12-09T01:31:07.221Z,4.33
2018-12-09T01:33:35.768Z,6.23
2018-12-09T01:36:04.450Z,5.87
2018-12-09T01:38:33.261Z,5.37
2018-12-09T01:41:01.738Z,4.27
2018-12-09T01:43:30.681Z,5.53
2018-12-09T01:45:59.554Z,5.07
2018-12-09T01:48:28.155Z,6.70
2018-12-09T01:50:56.996Z,5.60
2018-12-09T01:54:36.232Z,5.33
2018-12-09T01:57:05.008Z,5.73
2018-12-09T01:59:33.613Z,5.33
2018-12-09T02:02:02.276Z,6.23
2018-12-09T02:04:30.855Z,6.63
2018-12-09T02:06:59.613Z,5.90
2018-12-09T02:09:30.272Z,4.90
2018-12-09T02:11:58.823Z,4.70
2018-12-09T02:14:27.843Z,4.97
2018-12-09T02:16:56.401Z,4.47
2018-12-09T02:19:26.009Z,4.83
2018-12-09T02:21:54.788Z,6.10
2018-12-09T02:24:23.708Z,5.07
2018-12-09T02:26:52.417Z,7.77
2018-12-09T02:29:21.087Z,7.27
2018-12-09T02:31:50.248Z,5.80
2018-12-09T02:34:18.769Z,4.87
2018-12-09T02:36:48.917Z,5.03
2018-12-09T02:39:17.507Z,5.30
2018-12-09T02:41:47.520Z,4.90
2018-12-09T02:44:16.043Z,5.63
2018-12-09T02:46:44.508Z,4.50
2018-12-09T02:49:13.220Z,4.27
2018-12-09T02:51:41.836Z,5.13
2018-12-09T02:54:10.925Z,5.00
2018-12-09T02:56:39.666Z,6.53
2018-12-09T02:59:08.799Z,5.37
2018-12-09T03:01:37.777Z,3.93
2018-12-09T03:04:06.396Z,5.13
2018-12-09T03:06:35.450Z,5.23
2018-12-09T03:09:06.249Z,4.37
2018-12-09T03:11:34.830Z,4.00
2018-12-09T03:14:03.239Z,4.03
2018-12-09T03:16:31.722Z,4.33
2018-12-09T03:19:00.277Z,5.20
2018-12-09T03:21:28.745Z,5.23
2018-12-09T03:23:57.294Z,4.00
2018-12-09T03:26:26.283Z,6.23
2018-12-09T03:28:54.834Z,5.37
2018-12-09T03:31:23.372Z,5.13
2018-12-09T03:33:51.873Z,5.47
2018-12-09T03:36:20.637Z,3.53
2018-12-09T03:38:49.386Z,5.50
2018-12-09T03:41:18.054Z,4.90
2018-12-09T03:43:46.539Z,5.90
2018-12-09T03:46:14.972Z,6.27
2018-12-09T03:48:43.458Z,6.83
2018-12-09T03:51:11.991Z,5.30
2018-12-09T03:53:40.638Z,7.30
2018-12-09T03:56:09.287Z,6.03
2018-12-09T03:58:39.378Z,7.57
2018-12-09T04:01:08.130Z,7.83
2018-12-09T04:03:37.111Z,8.93
2018-12-09T04:06:05.655Z,7.03
2018-12-09T04:08:34.347Z,8.30
2018-12-09T04:11:02.798Z,8.07
2018-12-09T04:13:31.450Z,9.47
2018-12-09T04:15:59.928Z,8.37
2018-12-09T04:18:28.383Z,7.93
2018-12-09T04:20:56.901Z,8.17
2018-12-09T04:23:25.660Z,8.77
2018-12-09T04:25:54.706Z,9.63
2018-12-09T04:28:23.336Z,8.73
2018-12-09T04:30:51.889Z,8.60
2018-12-09T04:33:20.377Z,9.20
2018-12-09T04:35:49.120Z,8.73
2018-12-09T04:38:18.037Z,12.00
2018-12-09T04:40:46.649Z,10.90
2018-12-09T04:43:15.156Z,9.30
2018-12-09T04:45:43.985Z,8.70
2018-12-09T04:48:12.515Z,9.07
2018-12-09T04:50:41.058Z,9.57
2018-12-09T04:53:09.649Z,10.77
2018-12-09T04:55:38.244Z,10.37
2018-12-09T04:58:07.006Z,11.30
2018-12-09T05:00:51.978Z,12.73
2018-12-09T05:03:20.541Z,11.37
2018-12-09T05:05:48.985Z,11.30
2018-12-09T05:08:17.492Z,10.80
2018-12-09T05:10:46.115Z,11.00
2018-12-09T05:13:14.549Z,12.23
2018-12-09T05:15:43.018Z,11.33
2018-12-09T05:18:11.749Z,11.47
2018-12-09T05:20:40.389Z,10.93
2018-12-09T05:23:09.013Z,9.63
2018-12-09T05:25:37.610Z,10.37
2018-12-09T05:28:06.218Z,10.63
2018-12-09T05:30:34.812Z,10.43
2018-12-09T05:33:03.626Z,8.40
2018-12-09T05:35:32.393Z,10.53
2018-12-09T05:38:01.112Z,13.33
2018-12-09T05:40:30.171Z,11.00
2018-12-09T05:42:58.795Z,9.53
2018-12-09T05:45:27.991Z,14.00
2018-12-09T05:47:56.614Z,12.47
2018-12-09T05:50:25.319Z,12.40
2018-12-09T05:52:53.838Z,13.17
2018-12-09T05:55:22.579Z,12.83
2018-12-09T05:57:51.384Z,11.23
2018-12-09T06:00:20.309Z,13.60
2018-12-09T06:02:56.842Z,13.53
2018-12-09T06:05:25.361Z,15.13
2018-12-09T06:07:54.114Z,12.60
2018-12-09T06:10:22.847Z,11.33
2018-12-09T06:12:51.525Z,12.93
2018-12-09T06:15:19.978Z,12.20
2018-12-09T06:17:48.480Z,12.97
2018-12-09T06:20:17.186Z,10.40
2018-12-09T06:22:45.793Z,13.17
2018-12-09T06:25:14.302Z,12.20
2018-12-09T06:27:43.096Z,10.50
2018-12-09T06:30:11.900Z,10.67
2018-12-09T06:32:40.253Z,10.90
2018-12-09T06:35:09.262Z,10.47
2018-12-09T06:37:37.638Z,14.43
2018-12-09T06:40:06.577Z,11.00
2018-12-09T06:42:35.457Z,11.43
2018-12-09T06:45:04.280Z,11.43
2018-12-09T06:47:32.683Z,9.57
2018-12-09T06:50:01.423Z,14.67
2018-12-09T06:52:29.878Z,13.80
2018-12-09T06:54:58.609Z,12.67
2018-12-09T06:57:27.059Z,14.23
2018-12-09T06:59:55.367Z,13.30
2018-12-09T07:02:23.800Z,12.93
2018-12-09T07:04:52.260Z,12.83
2018-12-09T07:07:21.315Z,11.63
2018-12-09T07:09:49.766Z,11.73
2018-12-09T07:12:18.408Z,11.63
2018-12-09T07:14:46.956Z,9.53
2018-12-09T07:17:15.414Z,11.57
2018-12-09T07:19:44.196Z,9.90
2018-12-09T07:22:12.681Z,10.80
2018-12-09T07:24:41.201Z,14.10
2018-12-09T07:27:09.498Z,11.93
2018-12-09T07:29:38.357Z,18.03
2018-12-09T07:32:07.294Z,25.07
2018-12-09T07:34:35.642Z,30.57
2018-12-09T07:37:04.110Z,20.03
2018-12-09T07:39:32.409Z,17.00
2018-12-09T07:42:00.714Z,21.47
2018-12-09T07:44:29.564Z,26.47
2018-12-09T07:46:58.072Z,22.23
2018-12-09T07:49:26.750Z,17.93
2018-12-09T07:51:55.194Z,16.23
2018-12-09T07:54:23.565Z,14.87
2018-12-09T07:56:52.026Z,14.70
2018-12-09T07:59:20.344Z,15.43
2018-12-09T08:01:49.950Z,18.17
2018-12-09T08:04:18.406Z,20.83
2018-12-09T08:06:47.733Z,18.60
2018-12-09T08:09:16.311Z,20.20
2018-12-09T08:11:44.634Z,19.20
2018-12-09T08:14:13.160Z,19.43
2018-12-09T08:16:41.440Z,19.37
2018-12-09T08:19:10.089Z,34.80
2018-12-09T08:21:38.503Z,26.17
2018-12-09T08:24:06.906Z,20.80
2018-12-09T08:26:35.387Z,19.40
2018-12-09T08:29:03.727Z,19.83
2018-12-09T08:31:32.078Z,19.10
2018-12-09T08:34:00.402Z,18.33
2018-12-09T08:36:28.777Z,23.40
2018-12-09T08:38:57.353Z,27.47
2018-12-09T08:41:25.750Z,24.60
2018-12-09T08:43:54.122Z,22.97
2018-12-09T08:46:22.551Z,22.93
2018-12-09T08:48:51.218Z,15.07
2018-12-09T08:51:20.574Z,15.57
2018-12-09T08:53:48.877Z,16.00
2018-12-09T08:56:17.170Z,21.33
2018-12-09T08:58:45.820Z,17.80
2018-12-09T09:01:14.238Z,14.97
2018-12-09T09:03:42.814Z,18.53
2018-12-09T09:06:11.337Z,14.67
2018-12-09T09:08:39.813Z,16.57
2018-12-09T09:11:08.735Z,16.93
2018-12-09T09:13:37.087Z,17.73
2018-12-09T09:16:05.615Z,18.30
2018-12-09T09:18:33.914Z,16.10
2018-12-09T09:21:02.297Z,16.87
2018-12-09T09:23:30.606Z,17.80
2018-12-09T09:25:59.042Z,16.43
2018-12-09T09:28:27.508Z,16.87
2018-12-09T09:30:55.826Z,17.47
2018-12-09T09:33:24.146Z,20.17
2018-12-09T09:35:52.506Z,27.40
2018-12-09T09:38:21.126Z,59.87
2018-12-09T09:40:49.480Z,51.77
2018-12-09T09:43:17.957Z,38.93
2018-12-09T09:45:46.314Z,40.23
2018-12-09T09:48:16.679Z,45.03
2018-12-09T09:50:45.455Z,58.60
2018-12-09T09:53:13.918Z,74.13
2018-12-09T09:55:42.425Z,95.17
2018-12-09T09:58:10.843Z,117.57
2018-12-09T10:00:39.322Z,103.83
2018-12-09T10:03:07.728Z,81.63
2018-12-09T10:05:36.261Z,57.83
2018-12-09T10:08:08.430Z,47.10
2018-12-09T10:10:36.986Z,38.13
2018-12-09T10:13:05.376Z,45.67
2018-12-09T10:15:34.211Z,40.53
2018-12-09T10:18:02.817Z,41.53
2018-12-09T10:20:31.348Z,48.13
2018-12-09T10:22:59.841Z,45.23
2018-12-09T10:25:28.339Z,43.27
2018-12-09T10:27:56.722Z,39.13
2018-12-09T10:30:25.074Z,43.60
2018-12-09T10:32:53.891Z,43.90
2018-12-09T10:35:22.817Z,39.40
2018-12-09T10:37:52.154Z,35.10
2018-12-09T10:40:21.542Z,31.30
2018-12-09T10:42:50.398Z,36.13
2018-12-09T10:45:18.905Z,38.33
2018-12-09T10:47:47.294Z,36.27
2018-12-09T10:50:15.811Z,48.07
2018-12-09T10:52:44.362Z,49.80
2018-12-09T10:55:12.699Z,51.43
2018-12-09T10:57:41.141Z,50.63
2018-12-09T11:00:14.038Z,45.37
2018-12-09T11:02:42.452Z,47.33
2018-12-09T11:05:11.378Z,45.30
2018-12-09T11:07:39.766Z,55.63
2018-12-09T11:10:08.272Z,48.83
2018-12-09T11:12:36.758Z,48.93
2018-12-09T11:15:31.719Z,43.07
2018-12-09T11:18:00.090Z,44.07
2018-12-09T11:20:28.544Z,69.60
2018-12-09T11:22:57.026Z,85.80
2018-12-09T11:25:25.399Z,73.83
2018-12-09T11:27:53.931Z,55.00
2018-12-09T11:30:22.566Z,48.93
2018-12-09T11:32:51.001Z,48.97
2018-12-09T11:35:19.443Z,44.43
2018-12-09T11:37:48.081Z,31.63
2018-12-09T11:40:16.470Z,26.57
2018-12-09T11:42:44.782Z,17.20
2018-12-09T11:45:13.570Z,27.00
2018-12-09T11:47:42.388Z,37.13
2018-12-09T11:50:10.887Z,38.40
2018-12-09T11:52:39.307Z,26.30
2018-12-09T11:55:08.393Z,23.83
2018-12-09T11:57:36.928Z,23.13
2018-12-09T12:00:09.434Z,27.03
2018-12-09T12:02:38.206Z,25.87
2018-12-09T12:05:07.408Z,24.73
2018-12-09T12:07:35.752Z,24.10
2018-12-09T12:10:04.991Z,22.83
2018-12-09T12:12:33.439Z,22.23
2018-12-09T12:15:33.187Z,22.73
2018-12-09T12:18:01.516Z,18.13
2018-12-09T12:20:30.225Z,23.73
2018-12-09T12:22:58.622Z,23.53
2018-12-09T12:25:27.217Z,21.70
2018-12-09T12:27:55.710Z,15.27
2018-12-09T12:30:24.078Z,15.50
2018-12-09T12:32:52.433Z,16.13
2018-12-09T12:35:21.019Z,18.33
2018-12-09T12:37:49.510Z,19.17
2018-12-09T12:40:17.984Z,19.33
2018-12-09T12:42:46.395Z,20.67
2018-12-09T12:45:14.768Z,20.30
2018-12-09T12:47:43.454Z,16.77
2018-12-09T12:50:12.344Z,18.87
2018-12-09T12:52:40.746Z,18.73
2018-12-09T12:55:09.256Z,22.93
2018-12-09T12:57:37.654Z,18.67
2018-12-09T13:00:12.637Z,16.57
2018-12-09T13:02:41.084Z,16.10
2018-12-09T13:05:09.413Z,20.17
2018-12-09T13:07:37.921Z,13.80
2018-12-09T13:10:06.824Z,14.70
2018-12-09T13:12:35.149Z,16.07
2018-12-09T13:15:48.375Z,17.73
2018-12-09T13:18:16.673Z,15.83
2018-12-09T13:20:45.222Z,16.77
2018-12-09T13:23:13.818Z,13.40
2018-12-09T13:25:42.190Z,14.57
2018-12-09T13:28:10.495Z,16.37
2018-12-09T13:30:39.151Z,16.73
2018-12-09T13:33:07.870Z,17.67
2018-12-09T13:35:36.714Z,14.97
2018-12-09T13:38:05.687Z,13.47
2018-12-09T13:40:34.536Z,12.73
2018-12-09T13:43:02.985Z,17.63
2018-12-09T13:45:31.451Z,17.90
2018-12-09T13:48:00.019Z,18.00
2018-12-09T13:50:28.931Z,16.83
2018-12-09T13:52:57.330Z,17.63
2018-12-09T13:55:25.858Z,15.70
2018-12-09T13:57:54.227Z,14.73
2018-12-09T14:00:22.568Z,20.00
2018-12-09T14:02:50.959Z,15.20
2018-12-09T14:05:19.661Z,13.80
2018-12-09T14:07:48.094Z,14.90
2018-12-09T14:10:16.565Z,21.53
2018-12-09T14:12:45.007Z,19.70
2018-12-09T14:16:00.639Z,29.80
2018-12-09T14:18:28.999Z,17.93
2018-12-09T14:20:57.750Z,16.27
2018-12-09T14:23:26.173Z,17.03
2018-12-09T14:25:54.682Z,17.50
2018-12-09T14:28:23.047Z,19.43
2018-12-09T14:30:51.410Z,16.43
2018-12-09T14:33:20.008Z,15.87
2018-12-09T14:35:48.397Z,17.50
2018-12-09T14:38:17.051Z,16.17
2018-12-09T14:40:45.850Z,17.40
2018-12-09T14:43:14.549Z,14.40
2018-12-09T14:45:48.923Z,17.03
2018-12-09T14:48:13.510Z,18.23
2018-12-09T14:50:42.509Z,19.17
2018-12-09T14:53:10.913Z,24.23
2018-12-09T14:55:39.619Z,32.57
2018-12-09T14:58:08.122Z,32.07
2018-12-09T15:00:36.462Z,31.87
2018-12-09T15:03:05.278Z,40.20
2018-12-09T15:05:33.923Z,31.07
2018-12-09T15:08:02.667Z,34.73
2018-12-09T15:10:31.342Z,31.67
2018-12-09T15:12:59.868Z,35.07
2018-12-09T15:15:57.672Z,33.20
2018-12-09T15:18:26.078Z,41.93
2018-12-09T15:20:54.410Z,47.23
2018-12-09T15:23:22.834Z,45.40
2018-12-09T15:25:51.229Z,48.27
2018-12-09T15:28:19.579Z,38.87
2018-12-09T15:30:47.837Z,25.40
2018-12-09T15:33:16.265Z,18.37
2018-12-09T15:35:44.851Z,17.97
2018-12-09T15:38:13.478Z,13.60
2018-12-09T15:40:42.194Z,10.50
2018-12-09T15:43:10.612Z,10.30
2018-12-09T15:45:39.107Z,12.93
2018-12-09T15:48:07.458Z,12.23
2018-12-09T15:50:35.855Z,12.77
2018-12-09T15:53:04.209Z,11.20
2018-12-09T15:55:32.591Z,11.73
2018-12-09T15:58:01.278Z,13.70
2018-12-09T16:00:34.742Z,14.87
2018-12-09T16:03:03.667Z,15.70
2018-12-09T16:05:32.164Z,15.73
2018-12-09T16:08:00.515Z,17.50
2018-12-09T16:10:28.971Z,18.90
2018-12-09T16:12:57.483Z,16.50
2018-12-09T16:16:04.756Z,18.50
2018-12-09T16:18:33.171Z,15.63
2018-12-09T16:21:01.612Z,13.60
2018-12-09T16:23:30.468Z,12.73
2018-12-09T16:25:58.762Z,16.17
2018-12-09T16:28:27.619Z,16.73
2018-12-09T16:30:56.209Z,16.80
2018-12-09T16:33:24.542Z,16.33
2018-12-09T16:35:53.293Z,19.77
2018-12-09T16:38:21.749Z,22.30
2018-12-09T16:40:50.210Z,23.37
2018-12-09T16:43:18.669Z,22.27
2018-12-09T16:45:47.119Z,19.17
2018-12-09T16:48:15.920Z,17.53
2018-12-09T16:50:44.351Z,15.63
2018-12-09T16:53:12.767Z,16.00
2018-12-09T16:55:41.199Z,14.80
2018-12-09T16:58:09.952Z,9.97
2018-12-09T17:00:38.302Z,13.47
2018-12-09T17:03:07.032Z,11.27
2018-12-09T17:05:35.708Z,12.13
2018-12-09T17:08:04.470Z,8.60
2018-12-09T17:10:32.855Z,9.63
2018-12-09T17:13:01.291Z,8.83
2018-12-09T17:16:01.903Z,7.90
2018-12-09T17:18:30.893Z,11.37
2018-12-09T17:20:59.704Z,8.67
2018-12-09T17:23:28.127Z,11.73
2018-12-09T17:25:56.478Z,12.33
2018-12-09T17:28:25.135Z,9.43
2018-12-09T17:30:53.455Z,8.63
2018-12-09T17:33:23.545Z,7.90
2018-12-09T17:35:52.131Z,9.20
2018-12-09T17:38:20.507Z,8.47
2018-12-09T17:40:48.966Z,8.63
2018-12-09T17:43:17.576Z,9.17
2018-12-09T17:45:45.981Z,9.80
2018-12-09T17:48:14.340Z,17.33
2018-12-09T17:50:42.727Z,20.53
2018-12-09T17:53:10.986Z,20.83
2018-12-09T17:55:39.395Z,20.43
2018-12-09T17:58:07.688Z,24.40
2018-12-09T18:00:36.089Z,19.30
2018-12-09T18:03:04.707Z,13.33
2018-12-09T18:05:33.278Z,16.03
2018-12-09T18:08:01.914Z,15.80
2018-12-09T18:10:31.111Z,15.13
2018-12-09T18:12:59.457Z,15.90
2018-12-09T18:16:12.436Z,13.73
2018-12-09T18:18:41.377Z,17.17
2018-12-09T18:21:09.808Z,12.80
2018-12-09T18:23:38.360Z,17.57
2018-12-09T18:26:06.762Z,21.13
2018-12-09T18:28:35.380Z,19.30
2018-12-09T18:31:04.676Z,20.73
2018-12-09T18:33:33.189Z,24.73
2018-12-09T18:36:01.864Z,18.73
2018-12-09T18:38:33.465Z,13.30
2018-12-09T18:41:01.843Z,11.37
2018-12-09T18:43:30.310Z,13.23
2018-12-09T18:45:58.670Z,14.47
2018-12-09T18:48:27.538Z,13.77
2018-12-09T18:50:55.881Z,12.13
2018-12-09T18:53:24.166Z,11.37
2018-12-09T18:55:52.575Z,14.67
2018-12-09T18:58:20.973Z,18.23
2018-12-09T19:00:49.455Z,18.70
2018-12-09T19:03:17.897Z,14.63
2018-12-09T19:05:46.398Z,11.93
2018-12-09T19:08:18.323Z,13.27
2018-12-09T19:10:46.874Z,15.27
2018-12-09T19:13:15.607Z,15.73
2018-12-09T19:16:11.358Z,14.37
2018-12-09T19:18:39.637Z,12.50
2018-12-09T19:21:08.132Z,14.20
2018-12-09T19:23:36.704Z,16.73
2018-12-09T19:26:05.047Z,15.43
2018-12-09T19:28:33.427Z,17.13
2018-12-09T19:31:01.922Z,14.67
2018-12-09T19:33:30.278Z,13.87
2018-12-09T19:35:58.816Z,12.43
2018-12-09T19:38:27.344Z,13.90
2018-12-09T19:40:55.662Z,19.40
2018-12-09T19:43:24.179Z,19.13
2018-12-09T19:45:52.588Z,28.13
2018-12-09T19:48:21.019Z,54.07
2018-12-09T19:50:49.486Z,46.37
2018-12-09T19:53:17.849Z,25.67
2018-12-09T19:55:46.204Z,18.57
2018-12-09T19:58:14.671Z,16.50
2018-12-09T20:00:43.374Z,17.97
2018-12-09T20:03:11.895Z,16.80
2018-12-09T20:05:47.662Z,20.30
2018-12-09T20:08:16.525Z,16.43
2018-12-09T20:10:44.886Z,16.37
2018-12-09T20:13:13.438Z,17.30
2018-12-09T20:15:57.399Z,12.97
2018-12-09T20:18:25.821Z,14.00
2018-12-09T20:20:56.020Z,14.67
2018-12-09T20:23:24.865Z,16.03
2018-12-09T20:25:53.562Z,16.03
2018-12-09T20:28:21.941Z,15.80
2018-12-09T20:30:50.558Z,16.83
2018-12-09T20:33:18.966Z,11.63
2018-12-09T20:35:47.396Z,15.33
2018-12-09T20:38:16.058Z,18.03
2018-12-09T20:40:44.455Z,19.33
2018-12-09T20:43:13.054Z,15.03
2018-12-09T20:45:41.703Z,13.47
2018-12-09T20:48:13.572Z,14.63
2018-12-09T20:50:40.513Z,13.03
2018-12-09T20:53:08.867Z,8.37
2018-12-09T20:55:37.622Z,12.60
2018-12-09T20:58:05.974Z,16.77
2018-12-09T21:00:34.722Z,21.77
2018-12-09T21:03:03.163Z,24.33
2018-12-09T21:05:31.677Z,19.60
2018-12-09T21:08:00.029Z,20.40
2018-12-09T21:10:29.150Z,15.07
2018-12-09T21:12:57.437Z,18.10
2018-12-09T21:19:14.365Z,17.67
2018-12-09T21:21:42.928Z,17.93
2018-12-09T21:24:11.443Z,12.37
2018-12-09T21:30:02.203Z,14.10
2018-12-09T21:32:30.529Z,13.43
2018-12-09T21:34:58.874Z,10.63
2018-12-09T21:37:27.227Z,12.90
2018-12-09T21:39:55.559Z,10.23
2018-12-09T21:42:23.872Z,13.27
2018-12-09T21:44:52.291Z,14.47
2018-12-09T21:47:20.764Z,15.27
2018-12-09T21:49:49.457Z,13.67
2018-12-09T21:52:17.836Z,16.10
2018-12-09T21:54:46.175Z,11.20
2018-12-09T21:57:14.541Z,16.33
2018-12-09T21:59:42.899Z,12.87
2018-12-09T22:02:11.238Z,20.10
2018-12-09T22:04:39.722Z,17.80
2018-12-09T22:07:08.119Z,14.20
2018-12-09T22:09:36.453Z,13.80
2018-12-09T22:12:05.330Z,16.20
2018-12-09T22:14:49.006Z,16.27
2018-12-09T22:17:17.410Z,15.40
2018-12-09T22:19:45.979Z,12.20
2018-12-09T22:22:15.918Z,13.80
2018-12-09T22:24:44.384Z,15.40
2018-12-09T22:27:13.214Z,11.60
2018-12-09T22:29:41.674Z,11.93
2018-12-09T22:32:10.575Z,12.73
2018-12-09T22:34:39.035Z,14.47
2018-12-09T22:37:07.492Z,14.43
2018-12-09T22:39:35.865Z,12.60
2018-12-09T22:42:04.223Z,12.13
2018-12-09T22:44:32.830Z,14.27
2018-12-09T22:47:01.293Z,12.27
2018-12-09T22:49:29.799Z,12.60
2018-12-09T22:51:58.301Z,7.83
2018-12-09T22:54:26.737Z,11.33
2018-12-09T22:56:55.175Z,12.80
2018-12-09T22:59:24.332Z,13.50
2018-12-09T23:01:58.249Z,9.87
2018-12-09T23:04:27.292Z,7.13
2018-12-09T23:07:00.483Z,11.20
2018-12-09T23:09:29.515Z,7.07
2018-12-09T23:11:59.439Z,7.27
2018-12-09T23:14:27.866Z,7.27
2018-12-09T23:16:56.425Z,6.53
2018-12-09T23:19:25.670Z,9.27
2018-12-09T23:21:54.192Z,7.40
2018-12-09T23:24:22.614Z,5.90
2018-12-09T23:26:51.802Z,7.50
2018-12-09T23:29:20.155Z,6.60
2018-12-09T23:31:49.988Z,8.93
2018-12-09T23:34:18.321Z,5.47
2018-12-09T23:36:47.243Z,8.53
2018-12-09T23:39:15.656Z,10.00
2018-12-09T23:41:44.331Z,8.50
2018-12-09T23:44:14.019Z,11.37
2018-12-09T23:46:42.476Z,9.23
2018-12-09T23:49:10.950Z,7.83
2018-12-09T23:51:39.247Z,9.73
2018-12-09T23:54:07.666Z,7.77
2018-12-09T23:56:35.961Z,6.37
2018-12-09T23:59:04.427Z,5.70
